Time;durP1;ratioP1;P1;durP2;ratioP2;P2;SDS_P1;SDS_P2;PMS_P1;PMS_P2;Temp;Humidity;BMP_temperature;BMP_pressure;BME280_temperature;BME280_humidity;BME280_pressure;Samples;Min_cycle;Max_cycle;Signal;HPM_P1;HPM_P2
2021/06/03 20:16:30;;;;;;;3.83;0.80;;;21.70;55.30;;;;;;5107124;27;20431;-69
2021/06/03 20:19:03;;;;;;;8.82;0.80;;;22.00;61.00;;;;;;5130904;28;20032;-71
2021/06/03 20:21:31;;;;;;;6.97;0.70;;;22.20;60.70;;;;;;5107206;28;20084;-71
2021/06/03 20:23:59;;;;;;;6.80;0.85;;;22.30;60.80;;;;;;5073152;28;20040;-90
2021/06/03 20:26:28;;;;;;;6.15;0.73;;;22.50;60.40;;;;;;5048724;28;20386;-73
2021/06/03 20:28:56;;;;;;;3.90;0.75;;;22.70;59.90;;;;;;5082663;28;20047;-74
2021/06/03 20:31:24;;;;;;;3.88;0.80;;;22.80;59.40;;;;;;5085820;28;20047;-75
2021/06/03 20:37:50;;;;;;;2.60;0.70;;;23.00;58.20;;;;;;4994428;27;363955;-79
2021/06/03 20:42:30;;;;;;;8.88;0.90;;;23.10;58.10;;;;;;4889405;27;3563201;-77
2021/06/03 20:44:58;;;;;;;3.40;0.82;;;23.20;58.10;;;;;;5110436;28;20066;-79
2021/06/03 20:47:26;;;;;;;9.75;0.98;;;23.10;58.10;;;;;;5099014;28;20052;-78
2021/06/03 20:49:54;;;;;;;1.70;0.50;;;23.00;58.20;;;;;;5100955;28;20056;-76
2021/06/03 20:52:22;;;;;;;3.47;0.85;;;23.00;58.20;;;;;;5092649;28;20048;-78
2021/06/03 20:54:50;;;;;;;1.98;0.63;;;23.00;58.30;;;;;;5100744;28;20517;-78
2021/06/03 20:57:18;;;;;;;1.73;0.60;;;23.00;58.30;;;;;;5106217;28;20044;-78
2021/06/03 20:59:47;;;;;;;2.50;0.80;;;23.00;58.30;;;;;;5104347;28;20625;-78
2021/06/03 21:02:15;;;;;;;3.10;0.52;;;23.00;58.30;;;;;;5095026;28;20040;-78
2021/06/03 21:04:43;;;;;;;5.97;0.65;;;23.00;58.00;;;;;;5089449;28;20052;-73
2021/06/03 21:07:11;;;;;;;11.55;1.20;;;23.00;58.10;;;;;;5092913;28;20052;-75
2021/06/03 21:09:39;;;;;;;9.88;1.00;;;23.00;58.00;;;;;;5092078;28;20056;-63
2021/06/03 21:12:07;;;;;;;10.20;1.30;;;22.90;58.20;;;;;;5091409;28;20059;-62
2021/06/03 21:14:42;;;;;;;5.85;0.70;;;22.90;58.40;;;;;;5090209;28;20071;-60
2021/06/03 21:17:10;;;;;;;3.65;0.98;;;22.80;58.40;;;;;;5091523;28;20071;-58
2021/06/03 21:19:39;;;;;;;12.65;1.00;;;22.80;58.50;;;;;;5090874;28;20052;-59
2021/06/03 21:22:07;;;;;;;12.40;1.20;;;22.80;58.60;;;;;;5090575;28;20053;-61
2021/06/03 21:24:44;;;;;;;9.77;1.02;;;22.80;58.70;;;;;;5090503;28;20485;-62
2021/06/03 21:27:13;;;;;;;8.00;1.20;;;22.80;58.80;;;;;;5088693;28;20078;-60
2021/06/03 21:29:41;;;;;;;4.68;0.90;;;22.80;58.90;;;;;;5089603;28;20063;-59
2021/06/03 21:32:19;;;;;;;4.20;0.90;;;22.80;58.90;;;;;;5096412;28;20355;-60
2021/06/03 21:34:48;;;;;;;10.23;1.05;;;22.80;59.00;;;;;;5109473;28;20048;-61
2021/06/03 21:37:16;;;;;;;4.70;1.00;;;22.80;59.10;;;;;;5101452;28;20048;-61
2021/06/03 21:39:48;;;;;;;10.18;1.23;;;22.80;59.10;;;;;;5098197;28;20040;-61
2021/06/03 21:42:16;;;;;;;6.63;0.90;;;22.80;59.10;;;;;;5114501;28;20059;-62
2021/06/03 21:44:49;;;;;;;7.82;0.80;;;22.80;59.10;;;;;;5118567;28;20067;-62
2021/06/03 21:47:17;;;;;;;5.90;0.73;;;22.80;59.10;;;;;;5122529;28;20059;-59
2021/06/03 21:52:33;;;;;;;4.45;1.40;;;22.70;57.00;;;;;;5103479;27;1026505;-70
2021/06/03 21:55:02;;;;;;;5.20;1.60;;;22.20;55.70;;;;;;5126911;28;20066;-70
2021/06/03 21:57:50;;;;;;;4.18;1.52;;;21.50;55.00;;;;;;5128317;27;20393;-69
2021/06/03 22:00:35;;;;;;;5.93;1.75;;;20.70;55.20;;;;;;5113972;28;20035;-70
2021/06/03 22:03:10;;;;;;;8.00;2.00;;;19.90;55.80;;;;;;5105372;28;20052;-71
2021/06/03 22:05:42;;;;;;;4.07;1.52;;;19.40;56.70;;;;;;5110488;28;20044;-70
2021/06/03 22:08:19;;;;;;;7.63;2.38;;;18.90;57.70;;;;;;5107951;28;20055;-70
2021/06/03 22:10:51;;;;;;;3.25;1.85;;;18.50;58.70;;;;;;5097516;28;20040;-70
2021/06/03 22:13:22;;;;;;;8.63;2.10;;;18.20;59.40;;;;;;5098483;28;20052;-71
2021/06/03 22:15:51;;;;;;;5.00;2.17;;;17.90;59.90;;;;;;5116810;28;20036;-70
2021/06/03 22:18:20;;;;;;;7.30;2.67;;;17.80;60.40;;;;;;5100773;28;20040;-71
2021/06/03 22:20:52;;;;;;;4.00;1.95;;;17.50;60.90;;;;;;5100000;28;20053;-71
2021/06/03 22:23:21;;;;;;;5.30;2.05;;;17.30;61.40;;;;;;5097846;28;20052;-70
2021/06/03 22:25:54;;;;;;;5.45;2.22;;;17.20;62.00;;;;;;5117653;28;20040;-71
2021/06/03 22:28:25;;;;;;;6.43;2.17;;;17.10;62.40;;;;;;5099468;28;20048;-70
2021/06/03 22:30:59;;;;;;;5.75;2.35;;;16.90;62.80;;;;;;5099970;28;20032;-70
2021/06/03 22:33:27;;;;;;;6.50;2.30;;;16.80;63.10;;;;;;5095954;28;20044;-70
2021/06/03 22:36:04;;;;;;;8.80;3.15;;;16.80;63.30;;;;;;5100377;28;20044;-69
2021/06/03 22:38:32;;;;;;;5.40;2.40;;;16.70;63.50;;;;;;5098451;28;20378;-70
2021/06/03 22:41:05;;;;;;;5.88;2.38;;;16.70;63.70;;;;;;5098970;28;20484;-70
2021/06/03 22:43:36;;;;;;;4.53;2.42;;;16.60;63.90;;;;;;5098807;28;20051;-70
2021/06/03 22:46:05;;;;;;;4.65;2.35;;;16.50;64.00;;;;;;5112860;28;20485;-71
2021/06/03 22:48:37;;;;;;;7.28;2.42;;;16.50;64.20;;;;;;5097251;28;20389;-71
2021/06/03 22:51:15;;;;;;;5.10;2.47;;;16.40;64.50;;;;;;5100680;28;20055;-70
2021/06/03 22:53:48;;;;;;;3.75;2.60;;;16.30;64.80;;;;;;5099867;28;20478;-70
2021/06/03 22:56:24;;;;;;;7.93;2.42;;;16.30;64.90;;;;;;5099554;28;20119;-70
2021/06/03 22:58:55;;;;;;;6.32;2.47;;;16.30;65.10;;;;;;5097704;28;20382;-70
2021/06/03 23:01:27;;;;;;;5.75;2.25;;;16.30;65.20;;;;;;5099473;28;20060;-70
2021/06/03 23:03:55;;;;;;;4.10;2.20;;;16.20;65.40;;;;;;5085463;28;20057;-70
2021/06/03 23:06:23;;;;;;;8.52;2.08;;;16.20;65.60;;;;;;5087130;28;20052;-71
2021/06/03 23:08:56;;;;;;;4.93;1.85;;;16.00;65.40;;;;;;5094156;28;20044;-70
2021/06/03 23:11:33;;;;;;;;;;;16.00;65.30;;;;;;5083999;28;20052;-71
2021/06/03 23:14:10;;;;;;;4.85;1.42;;;15.90;65.10;;;;;;5083978;28;19920;-69
2021/06/03 23:16:39;;;;;;;4.97;1.30;;;15.90;64.90;;;;;;5088418;28;20052;-71
2021/06/03 23:19:08;;;;;;;5.00;1.40;;;15.80;64.80;;;;;;5085130;28;20044;-71
2021/06/03 23:21:37;;;;;;;7.38;1.70;;;15.80;64.80;;;;;;5086693;28;20044;-70
2021/06/03 23:24:06;;;;;;;5.88;1.42;;;15.80;65.00;;;;;;5086293;28;20056;-71
2021/06/03 23:26:35;;;;;;;6.38;1.70;;;15.80;65.10;;;;;;5094006;28;20053;-70
2021/06/03 23:29:05;;;;;;;8.25;1.80;;;15.80;65.30;;;;;;5083778;28;20044;-69
2021/06/03 23:31:34;;;;;;;6.80;1.85;;;15.70;65.60;;;;;;5096954;28;20071;-70
2021/06/03 23:34:02;;;;;;;9.73;1.83;;;15.80;65.70;;;;;;5075464;28;20045;-71
2021/06/03 23:36:30;;;;;;;4.18;1.75;;;15.70;65.90;;;;;;5091485;28;20063;-71
2021/06/03 23:38:59;;;;;;;11.13;2.15;;;15.70;66.00;;;;;;5091964;28;20052;-71
2021/06/03 23:41:27;;;;;;;7.72;1.98;;;15.70;66.20;;;;;;5095887;28;20052;-71
2021/06/03 23:43:54;;;;;;;7.22;1.90;;;15.70;66.30;;;;;;5096166;28;20054;-70
2021/06/03 23:46:22;;;;;;;5.85;1.67;;;15.70;66.30;;;;;;5096990;28;20056;-70
2021/06/03 23:48:51;;;;;;;4.38;1.60;;;15.70;66.40;;;;;;5091261;28;20075;-69
2021/06/03 23:51:19;;;;;;;6.65;1.73;;;15.70;66.50;;;;;;5078352;28;20383;-71
2021/06/03 23:53:48;;;;;;;8.88;1.75;;;15.70;66.20;;;;;;5075988;28;20045;-71
2021/06/03 23:56:16;;;;;;;3.70;1.48;;;15.70;66.20;;;;;;5095375;28;20048;-69
2021/06/03 23:58:44;;;;;;;8.05;1.67;;;15.70;66.30;;;;;;5095847;28;20040;-71
